Time;durP1;ratioP1;P1;durP2;ratioP2;P2;SDS_P1;SDS_P2;PMS_P1;PMS_P2;Temp;Humidity;BMP_temperature;BMP_pressure;BME280_temperature;BME280_humidity;BME280_pressure;Samples;Min_cycle;Max_cycle;Signal;HPM_P1;HPM_P2
2022/05/24 04:05:22;;;;;;;6.63;2.90;;;14.70;99.90;;;;;;5577375;23;20632;-76
2022/05/24 04:07:50;;;;;;;4.63;2.60;;;14.70;99.90;;;;;;4954533;28;20377;-77
2022/05/24 04:10:19;;;;;;;5.37;2.80;;;14.80;99.90;;;;;;4957744;29;20229;-77
2022/05/24 04:12:47;;;;;;;4.60;2.97;;;14.70;99.90;;;;;;4958043;29;20290;-75
2022/05/24 04:15:16;;;;;;;5.60;2.60;;;14.80;99.90;;;;;;4956297;29;20243;-74
2022/05/24 04:17:45;;;;;;;4.70;2.70;;;14.90;99.90;;;;;;4956624;29;20640;-74
2022/05/24 04:20:15;;;;;;;6.03;2.60;;;14.80;99.90;;;;;;4955269;29;20224;-75
2022/05/24 04:22:45;;;;;;;5.00;2.60;;;14.80;99.90;;;;;;4956069;29;20606;-79
2022/05/24 04:25:14;;;;;;;4.10;2.30;;;14.90;99.90;;;;;;4955454;29;20231;-79
2022/05/24 04:27:43;;;;;;;4.50;2.70;;;14.90;99.90;;;;;;4956026;29;20300;-75
2022/05/24 04:30:13;;;;;;;5.37;2.63;;;14.90;99.90;;;;;;4956799;29;20246;-76
2022/05/24 04:32:41;;;;;;;7.07;2.67;;;15.00;99.90;;;;;;4957519;29;20286;-77
2022/05/24 04:35:10;;;;;;;5.20;2.53;;;15.00;99.90;;;;;;4949162;29;20223;-77
2022/05/24 04:37:38;;;;;;;5.40;2.80;;;15.00;99.90;;;;;;4957113;29;20208;-78
2022/05/24 04:40:09;;;;;;;4.03;2.40;;;15.10;99.90;;;;;;4961601;28;20314;-75
2022/05/24 04:42:36;;;;;;;5.00;2.70;;;15.10;99.90;;;;;;4957203;28;20294;-77
2022/05/24 04:45:08;;;;;;;4.77;2.80;;;15.10;99.90;;;;;;4966471;28;20215;-74
2022/05/24 04:47:36;;;;;;;5.47;2.70;;;15.10;99.90;;;;;;4978259;28;20195;-76
2022/05/24 04:50:08;;;;;;;4.43;2.83;;;15.10;99.90;;;;;;4978361;28;20246;-77
2022/05/24 04:52:38;;;;;;;3.97;2.53;;;15.10;99.90;;;;;;4979416;28;20215;-77
2022/05/24 04:55:14;;;;;;;4.53;2.57;;;15.10;99.90;;;;;;4939467;29;20257;-77
2022/05/24 04:57:43;;;;;;;6.13;2.73;;;15.10;99.90;;;;;;4953978;29;20219;-76
2022/05/24 05:00:14;;;;;;;3.80;2.67;;;15.10;99.90;;;;;;4960134;29;20605;-77
2022/05/24 05:02:42;;;;;;;4.40;2.50;;;15.10;99.90;;;;;;4959002;29;20222;-79
2022/05/24 05:05:11;;;;;;;5.23;2.50;;;15.00;99.90;;;;;;4959225;29;20616;-79
2022/05/24 05:07:40;;;;;;;3.77;2.57;;;15.00;99.90;;;;;;4957549;29;20215;-79
2022/05/24 05:10:11;;;;;;;3.83;2.60;;;15.00;99.90;;;;;;4954389;29;20879;-75
2022/05/24 05:12:40;;;;;;;5.50;2.80;;;15.00;99.90;;;;;;4957508;29;20218;-76
2022/05/24 05:15:08;;;;;;;5.17;2.40;;;14.90;99.90;;;;;;4956351;29;20290;-77
2022/05/24 05:17:37;;;;;;;5.20;2.30;;;15.00;99.90;;;;;;4957282;28;20311;-78
2022/05/24 05:20:07;;;;;;;5.30;2.70;;;15.00;99.90;;;;;;4956808;29;20283;-78
2022/05/24 05:22:36;;;;;;;4.53;2.60;;;15.00;99.90;;;;;;4939183;29;20221;-80
2022/05/24 05:25:06;;;;;;;5.87;2.87;;;15.00;99.90;;;;;;4939749;29;20219;-79
2022/05/24 05:27:36;;;;;;;4.03;2.90;;;15.00;99.90;;;;;;4938704;29;20303;-79
2022/05/24 05:32:51;;;;;;;4.73;3.07;;;15.10;99.90;;;;;;4940341;29;20216;-78
2022/05/24 05:35:19;;;;;;;5.43;2.90;;;15.10;99.90;;;;;;4957058;29;20739;-77
2022/05/24 05:37:47;;;;;;;5.00;2.57;;;15.10;99.90;;;;;;4956920;29;20619;-80
2022/05/24 05:40:16;;;;;;;5.20;3.07;;;15.10;99.90;;;;;;4956777;29;20231;-79
2022/05/24 05:42:45;;;;;;;7.03;2.70;;;15.10;99.90;;;;;;4956216;29;20270;-77
2022/05/24 05:45:15;;;;;;;6.30;2.67;;;15.10;99.90;;;;;;4956458;29;20218;-79
2022/05/24 05:47:43;;;;;;;5.40;2.97;;;15.00;99.90;;;;;;4956898;29;20564;-80
2022/05/24 05:50:12;;;;;;;6.47;2.90;;;15.00;99.90;;;;;;4956064;29;20274;-76
2022/05/24 05:52:40;;;;;;;6.00;2.93;;;15.10;99.90;;;;;;4956305;29;20234;-77
2022/05/24 05:55:09;;;;;;;6.47;2.83;;;15.10;99.90;;;;;;4956533;29;20216;-75
2022/05/24 05:57:41;;;;;;;5.47;2.73;;;15.10;99.90;;;;;;4956123;29;20554;-77
2022/05/24 06:00:11;;;;;;;5.77;2.73;;;15.10;99.90;;;;;;4956028;29;20290;-78
2022/05/24 06:02:39;;;;;;;7.63;2.70;;;15.10;99.90;;;;;;4956645;29;20673;-78
2022/05/24 06:05:10;;;;;;;6.93;2.83;;;15.10;99.90;;;;;;4957780;28;20293;-79
2022/05/24 06:07:38;;;;;;;6.67;2.80;;;15.10;99.90;;;;;;4967591;28;20206;-78
2022/05/24 06:10:10;;;;;;;5.73;2.73;;;15.20;99.90;;;;;;4969095;28;20215;-77
2022/05/24 06:12:39;;;;;;;4.83;2.60;;;15.10;99.90;;;;;;4963034;29;20223;-79
2022/05/24 06:15:10;;;;;;;7.47;2.63;;;15.10;99.90;;;;;;4957510;29;20215;-78
2022/05/24 06:17:45;;;;;;;4.53;2.70;;;15.20;99.90;;;;;;4957243;29;20266;-76
2022/05/24 06:20:17;;;;;;;6.90;2.97;;;15.10;99.90;;;;;;4962337;29;20790;-80
2022/05/24 06:22:49;;;;;;;5.93;2.57;;;15.20;99.90;;;;;;4959707;29;20591;-81
2022/05/24 06:25:18;;;;;;;4.53;2.53;;;15.30;99.90;;;;;;4958609;29;20729;-79
2022/05/24 06:27:47;;;;;;;5.50;2.57;;;15.30;99.90;;;;;;4957966;28;20283;-75
2022/05/24 06:30:19;;;;;;;4.07;2.50;;;15.30;99.90;;;;;;4959008;29;20200;-75
2022/05/24 06:32:47;;;;;;;4.37;2.53;;;15.30;99.90;;;;;;4958363;29;20196;-81
2022/05/24 06:35:16;;;;;;;6.10;2.20;;;15.40;99.90;;;;;;4957939;29;20251;-79
2022/05/24 06:37:44;;;;;;;4.57;2.63;;;15.50;99.90;;;;;;4956842;29;20267;-78
2022/05/24 06:40:16;;;;;;;4.03;2.27;;;15.50;99.90;;;;;;4956635;29;20204;-78
2022/05/24 06:42:44;;;;;;;4.67;2.40;;;15.70;99.90;;;;;;4956236;28;20242;-79
2022/05/24 06:45:12;;;;;;;4.57;2.60;;;15.80;99.90;;;;;;4949392;29;20218;-79
2022/05/24 06:47:42;;;;;;;5.57;2.80;;;16.00;99.90;;;;;;4956302;29;20294;-80
2022/05/24 06:50:12;;;;;;;6.33;2.50;;;16.10;99.90;;;;;;4956353;29;20701;-79
2022/05/24 06:52:42;;;;;;;5.87;2.10;;;16.30;99.90;;;;;;4955784;29;20597;-79
2022/05/24 06:55:11;;;;;;;5.57;2.17;;;16.40;99.90;;;;;;4948195;29;20245;-76
2022/05/24 06:57:39;;;;;;;3.03;2.07;;;16.50;99.90;;;;;;4957102;29;20696;-78
2022/05/24 07:03:02;;;;;;;3.70;2.27;;;16.40;99.90;;;;;;4956039;29;20235;-76
2022/05/24 07:05:31;;;;;;;3.30;2.50;;;16.30;99.90;;;;;;4955858;29;20250;-76
2022/05/24 07:08:01;;;;;;;5.20;2.20;;;16.30;99.90;;;;;;4956142;29;20212;-76
2022/05/24 07:10:30;;;;;;;4.03;2.20;;;16.20;99.90;;;;;;4955555;29;20215;-76
2022/05/24 07:12:59;;;;;;;3.17;2.20;;;16.20;99.90;;;;;;4956008;29;20298;-74
2022/05/24 07:15:28;;;;;;;5.07;2.30;;;16.20;99.90;;;;;;4958005;29;20216;-75
2022/05/24 07:17:56;;;;;;;4.07;2.17;;;16.20;99.90;;;;;;4960890;29;20310;-76
2022/05/24 07:20:27;;;;;;;3.53;2.10;;;16.10;99.90;;;;;;4955209;29;20212;-77
2022/05/24 07:23:07;;;;;;;4.60;2.20;;;16.00;99.90;;;;;;4955346;29;20326;-76
2022/05/24 07:25:36;;;;;;;5.43;2.27;;;16.10;99.90;;;;;;4955280;29;20226;-77
2022/05/24 07:28:05;;;;;;;5.10;2.20;;;16.10;99.90;;;;;;4956441;29;20247;-78
2022/05/24 07:30:33;;;;;;;4.93;2.50;;;16.10;99.90;;;;;;4955517;29;20202;-75
2022/05/24 07:33:02;;;;;;;4.53;2.50;;;16.00;99.90;;;;;;4935841;29;20200;-77
2022/05/24 07:35:31;;;;;;;4.77;2.40;;;16.00;99.90;;;;;;4936244;29;20216;-79
2022/05/24 07:38:00;;;;;;;6.47;2.67;;;16.00;99.90;;;;;;4936273;29;20240;-79
2022/05/24 07:46:08;;;;;;;2.73;2.47;;;15.80;99.90;;;;;;4915651;29;20294;-78
2022/05/24 07:48:37;;;;;;;3.63;2.57;;;15.70;99.90;;;;;;4940160;29;20243;-78
2022/05/24 07:51:07;;;;;;;5.50;2.97;;;15.70;99.90;;;;;;4942502;29;20578;-75
2022/05/24 07:53:36;;;;;;;5.27;2.80;;;15.70;99.90;;;;;;4940856;29;20240;-78
2022/05/24 07:56:05;;;;;;;11.77;3.20;;;15.70;99.90;;;;;;4959999;29;20246;-78
2022/05/24 07:58:33;;;;;;;6.90;3.00;;;15.70;99.90;;;;;;4965149;29;20215;-78
2022/05/24 08:01:02;;;;;;;3.63;2.87;;;15.60;99.90;;;;;;4959852;29;20234;-78
2022/05/24 08:03:31;;;;;;;6.43;3.10;;;15.50;99.90;;;;;;4958877;29;20203;-77
2022/05/24 08:06:00;;;;;;;5.13;2.90;;;15.50;99.90;;;;;;4958746;29;20223;-75
2022/05/24 08:08:29;;;;;;;5.07;2.83;;;15.50;99.90;;;;;;4958643;29;20642;-78
2022/05/24 08:10:58;;;;;;;5.87;2.97;;;15.40;99.90;;;;;;4958628;29;20262;-78
2022/05/24 08:13:27;;;;;;;6.97;3.13;;;15.40;99.90;;;;;;4958612;29;20665;-77
2022/05/24 08:15:56;;;;;;;5.33;3.17;;;15.40;99.90;;;;;;4958561;29;20745;-77
2022/05/24 08:18:25;;;;;;;5.20;2.97;;;15.40;99.90;;;;;;4958900;29;20207;-76
2022/05/24 08:20:54;;;;;;;10.67;3.43;;;15.30;99.90;;;;;;4957647;29;20262;-76
2022/05/24 08:23:24;;;;;;;7.40;3.60;;;15.20;99.90;;;;;;4957878;29;20227;-77
2022/05/24 08:25:55;;;;;;;5.90;3.10;;;15.20;99.90;;;;;;4957017;29;20752;-77
2022/05/24 08:28:24;;;;;;;5.10;2.83;;;15.00;99.90;;;;;;4959063;29;20234;-80
2022/05/24 08:30:54;;;;;;;4.90;2.50;;;15.00;99.90;;;;;;4959067;29;20772;-78
2022/05/24 08:33:24;;;;;;;5.97;2.80;;;14.90;99.90;;;;;;4960753;29;20204;-80
2022/05/24 08:35:53;;;;;;;6.23;2.70;;;14.80;99.90;;;;;;4958148;29;20247;-79
2022/05/24 08:38:23;;;;;;;4.67;2.43;;;14.70;99.90;;;;;;4958008;29;20211;-79
2022/05/24 08:40:52;;;;;;;4.60;2.20;;;14.70;99.90;;;;;;4957525;29;20216;-78
2022/05/24 08:43:46;;;;;;;6.57;2.63;;;14.70;99.90;;;;;;4957831;28;20286;-77
2022/05/24 08:49:06;;;;;;;6.43;2.20;;;14.70;99.90;;;;;;4957932;29;20255;-79
2022/05/24 08:51:39;;;;;;;5.07;2.50;;;14.80;99.90;;;;;;4957175;28;20199;-81
2022/05/24 08:54:10;;;;;;;6.13;2.60;;;14.80;99.90;;;;;;4957902;29;20207;-81
2022/05/24 08:56:44;;;;;;;5.83;2.20;;;14.80;99.90;;;;;;4957725;29;20274;-75
2022/05/24 08:59:19;;;;;;;4.77;2.40;;;14.80;99.90;;;;;;4957283;29;20235;-80
2022/05/24 09:01:48;;;;;;;3.40;2.40;;;14.80;99.90;;;;;;4957526;29;20282;-79
2022/05/24 09:04:17;;;;;;;4.90;2.50;;;14.80;99.90;;;;;;4956840;29;20287;-77
2022/05/24 09:06:59;;;;;;;2.57;2.37;;;14.80;99.90;;;;;;4957020;29;20220;-78
2022/05/24 09:09:58;;;;;;;5.47;2.30;;;14.80;99.90;;;;;;4957041;29;20334;-79
2022/05/24 09:12:37;;;;;;;5.77;2.80;;;14.70;99.90;;;;;;4924392;29;20216;-81
2022/05/24 09:15:18;;;;;;;3.93;2.50;;;14.70;99.90;;;;;;4957439;29;20235;-80
2022/05/24 09:18:00;;;;;;;4.63;2.77;;;14.80;99.90;;;;;;4958734;29;20267;-79
2022/05/24 09:20:36;;;;;;;3.57;2.43;;;14.80;99.90;;;;;;4959902;29;20200;-77
2022/05/24 09:23:10;;;;;;;4.27;2.67;;;14.90;99.90;;;;;;4957902;29;20239;-80
2022/05/24 09:25:57;;;;;;;5.97;2.73;;;14.90;99.90;;;;;;4959677;29;20278;-81
2022/05/24 09:28:52;;;;;;;4.80;2.37;;;15.00;99.90;;;;;;4958235;29;20216;-78
2022/05/24 09:31:28;;;;;;;3.97;2.07;;;15.10;99.90;;;;;;4959056;29;20196;-79
2022/05/24 09:34:01;;;;;;;3.23;2.30;;;15.20;99.90;;;;;;4960168;29;20709;-79
2022/05/24 09:36:37;;;;;;;3.17;2.10;;;15.40;99.90;;;;;;4958313;29;20215;-78
2022/05/24 09:39:21;;;;;;;5.37;2.27;;;15.50;99.90;;;;;;4957002;29;20234;-77
2022/05/24 09:41:55;;;;;;;4.77;2.23;;;15.60;99.90;;;;;;4959399;29;20642;-75
2022/05/24 09:44:24;;;;;;;4.77;2.27;;;15.60;99.90;;;;;;4956835;28;20239;-79
2022/05/24 09:46:54;;;;;;;3.87;2.00;;;15.60;99.90;;;;;;4956382;29;20212;-79
2022/05/24 09:49:27;;;;;;;5.70;2.20;;;15.70;99.90;;;;;;4956610;29;20223;-81
2022/05/24 09:52:07;;;;;;;3.87;2.37;;;15.80;99.90;;;;;;4961236;29;20208;-80
2022/05/24 09:54:37;;;;;;;5.27;2.13;;;15.80;99.90;;;;;;4958745;29;20254;-78
2022/05/24 09:57:08;;;;;;;3.57;1.90;;;15.70;99.90;;;;;;4963346;29;20300;-79
2022/05/24 09:59:40;;;;;;;4.30;2.00;;;15.80;99.90;;;;;;4958615;29;20208;-77
2022/05/24 10:02:26;;;;;;;4.77;2.20;;;15.70;99.90;;;;;;4956580;28;20286;-77
2022/05/24 10:04:55;;;;;;;4.20;1.73;;;15.80;99.90;;;;;;4955392;29;20357;-75
2022/05/24 10:07:30;;;;;;;6.80;2.17;;;15.80;99.90;;;;;;4955693;29;20218;-76
2022/05/24 10:10:04;;;;;;;2.07;1.80;;;15.80;99.90;;;;;;4956270;29;20222;-75
2022/05/24 10:12:57;;;;;;;3.87;2.00;;;15.70;99.90;;;;;;4955991;29;20287;-75
2022/05/24 10:15:31;;;;;;;3.73;2.00;;;15.80;99.90;;;;;;4957766;29;20196;-76
2022/05/24 10:18:33;;;;;;;3.97;2.00;;;15.80;99.90;;;;;;4955759;29;20227;-77
2022/05/24 10:21:13;;;;;;;4.97;2.17;;;15.80;99.90;;;;;;4942135;29;20701;-76
2022/05/24 10:23:51;;;;;;;4.97;2.10;;;15.80;99.90;;;;;;4956887;29;20216;-76
2022/05/24 10:26:30;;;;;;;6.73;2.30;;;15.70;99.90;;;;;;4956695;29;20260;-77
2022/05/24 10:29:06;;;;;;;5.50;2.30;;;15.60;99.90;;;;;;4956923;29;20235;-78
2022/05/24 10:31:45;;;;;;;3.07;2.03;;;15.60;99.90;;;;;;4955734;29;20306;-77
2022/05/24 10:40:25;;;;;;;2.80;1.80;;;15.50;99.90;;;;;;4954655;29;20211;-76
2022/05/24 10:43:14;;;;;;;3.77;2.00;;;15.50;99.90;;;;;;4936190;29;20271;-76
2022/05/24 10:45:55;;;;;;;3.47;2.10;;;15.40;99.90;;;;;;4936102;29;20710;-77
2022/05/24 10:48:35;;;;;;;3.87;2.20;;;15.40;99.90;;;;;;4936402;29;20207;-76
2022/05/24 10:51:16;;;;;;;3.93;1.90;;;15.40;99.90;;;;;;4948616;29;20277;-75
2022/05/24 10:53:51;;;;;;;5.17;2.00;;;15.50;99.90;;;;;;4955001;29;20215;-76
2022/05/24 10:56:29;;;;;;;4.70;1.70;;;15.50;99.90;;;;;;4954561;29;20751;-75
2022/05/24 10:59:04;;;;;;;4.07;1.83;;;15.40;99.90;;;;;;4954737;29;20196;-75
2022/05/24 11:01:38;;;;;;;6.47;1.87;;;15.40;99.90;;;;;;4954617;29;20662;-75
2022/05/24 11:04:12;;;;;;;4.97;2.00;;;15.40;99.90;;;;;;4954727;29;20715;-75
2022/05/24 11:06:46;;;;;;;6.23;2.03;;;15.30;99.90;;;;;;4954684;29;20200;-76
2022/05/24 11:09:18;;;;;;;2.43;1.70;;;15.30;99.90;;;;;;4954852;29;20218;-75
2022/05/24 11:11:53;;;;;;;2.87;1.70;;;15.20;99.90;;;;;;4955523;29;20216;-77
2022/05/24 11:14:29;;;;;;;5.20;2.27;;;15.20;99.90;;;;;;4954338;28;20203;-76
2022/05/24 11:16:58;;;;;;;4.97;2.17;;;15.10;99.90;;;;;;4954662;29;20270;-80
2022/05/24 11:19:28;;;;;;;2.33;1.70;;;15.20;99.90;;;;;;4954951;29;20285;-78
2022/05/24 11:22:04;;;;;;;6.80;1.83;;;15.20;99.90;;;;;;4954837;29;20290;-79
2022/05/24 11:24:41;;;;;;;6.17;2.00;;;15.30;99.90;;;;;;4954875;29;20258;-78
2022/05/24 11:27:15;;;;;;;4.80;1.83;;;15.30;99.90;;;;;;4955235;29;20218;-76
2022/05/24 11:29:48;;;;;;;3.27;1.80;;;15.30;99.90;;;;;;4954411;29;20281;-77
2022/05/24 11:32:33;;;;;;;3.67;1.97;;;15.30;99.90;;;;;;4948151;29;20283;-76
2022/05/24 11:35:05;;;;;;;4.77;1.70;;;15.50;99.90;;;;;;4956377;29;20275;-77
2022/05/24 11:37:37;;;;;;;4.97;2.10;;;15.50;99.90;;;;;;4957053;29;20270;-75
2022/05/24 11:40:31;;;;;;;4.63;1.80;;;15.70;99.90;;;;;;4955268;29;20552;-77
2022/05/24 11:43:01;;;;;;;2.43;1.70;;;15.80;99.90;;;;;;4954943;28;20239;-75
2022/05/24 11:46:04;;;;;;;4.13;1.83;;;15.90;99.90;;;;;;4954948;29;20270;-75
2022/05/24 11:48:41;;;;;;;3.77;1.70;;;16.00;99.90;;;;;;4954343;29;20247;-77
2022/05/24 11:51:41;;;;;;;3.37;1.90;;;16.00;99.90;;;;;;4956485;29;20235;-77
2022/05/24 11:54:56;;;;;;;4.87;1.80;;;15.90;99.90;;;;;;4955635;29;20601;-75
2022/05/24 11:57:40;;;;;;;5.57;2.03;;;16.00;99.90;;;;;;4954016;29;20242;-74
2022/05/24 12:00:11;;;;;;;3.83;2.00;;;15.90;99.90;;;;;;4953451;29;20203;-75
2022/05/24 12:08:40;;;;;;;4.60;1.80;;;15.90;99.90;;;;;;4954190;29;20243;-77
2022/05/24 12:11:15;;;;;;;3.17;1.80;;;15.70;99.90;;;;;;4953885;29;20694;-74
2022/05/24 12:13:57;;;;;;;5.23;2.10;;;15.60;99.90;;;;;;4953924;29;20196;-75
2022/05/24 12:16:36;;;;;;;5.50;2.43;;;15.40;99.90;;;;;;4954080;29;20255;-77
2022/05/24 12:19:10;;;;;;;6.10;2.07;;;15.30;99.90;;;;;;4954128;29;20207;-77
2022/05/24 12:21:48;;;;;;;4.23;1.50;;;15.20;99.90;;;;;;4953982;29;20207;-76
2022/05/24 12:24:31;;;;;;;3.77;1.20;;;14.80;99.90;;;;;;4954381;29;20212;-77
2022/05/24 12:27:21;;;;;;;9.20;1.27;;;14.40;99.90;;;;;;4955750;28;20230;-77
2022/05/24 12:29:54;;;;;;;6.13;1.30;;;14.10;99.90;;;;;;4930439;29;20254;-75
2022/05/24 12:32:25;;;;;;;2.37;0.97;;;13.80;99.90;;;;;;4958922;29;20200;-74
2022/05/24 12:34:54;;;;;;;2.27;0.90;;;13.50;99.90;;;;;;4958441;29;20640;-75
2022/05/24 12:37:26;;;;;;;4.60;1.30;;;13.40;99.90;;;;;;4957682;29;20293;-78
2022/05/24 12:40:11;;;;;;;8.53;1.50;;;13.30;99.90;;;;;;4956532;29;20251;-75
2022/05/24 12:42:46;;;;;;;2.00;1.13;;;13.30;99.90;;;;;;4956769;28;20255;-74
2022/05/24 12:45:21;;;;;;;3.43;1.00;;;13.30;99.90;;;;;;4949819;29;20216;-76
2022/05/24 12:47:52;;;;;;;6.50;1.27;;;13.50;99.90;;;;;;4940308;29;20409;-74
2022/05/24 12:50:28;;;;;;;1.50;0.87;;;13.50;99.90;;;;;;4956921;29;20605;-74
2022/05/24 12:53:02;;;;;;;4.37;0.90;;;13.50;99.90;;;;;;4957517;29;20278;-76
2022/05/24 12:58:30;;;;;;;6.37;1.00;;;13.50;99.90;;;;;;4957092;29;20212;-75
2022/05/24 13:01:12;;;;;;;1.60;1.20;;;13.70;99.90;;;;;;4956581;29;20290;-75
2022/05/24 13:03:47;;;;;;;1.77;1.23;;;13.50;99.90;;;;;;4957093;29;20262;-76
2022/05/24 13:06:22;;;;;;;8.33;1.13;;;13.50;99.90;;;;;;4956459;29;20222;-75
2022/05/24 13:09:09;;;;;;;3.10;1.20;;;13.50;99.90;;;;;;4956223;29;20219;-76
2022/05/24 13:11:38;;;;;;;5.43;1.10;;;13.70;99.90;;;;;;4956469;29;20263;-74
2022/05/24 13:14:16;;;;;;;2.53;1.37;;;13.80;99.90;;;;;;4956718;29;20235;-77
2022/05/24 13:16:45;;;;;;;2.50;1.20;;;13.80;99.90;;;;;;4957330;29;20585;-75
2022/05/24 13:19:13;;;;;;;3.33;1.50;;;14.00;99.90;;;;;;4956483;29;20250;-76
2022/05/24 13:21:42;;;;;;;1.83;1.30;;;14.00;99.90;;;;;;4956535;29;20211;-74
2022/05/24 13:24:15;;;;;;;2.03;1.40;;;14.00;99.90;;;;;;4957095;29;20282;-77
2022/05/24 13:26:59;;;;;;;3.27;1.30;;;14.10;99.90;;;;;;4956746;29;20200;-76
2022/05/24 13:33:32;;;;;;;2.37;1.30;;;14.20;99.90;;;;;;4956143;29;20234;-75
2022/05/24 13:35:05;;;;;;;1.43;1.30;;;14.10;99.90;;;;;;4947542;29;20604;-78
2022/05/24 13:37:50;;;;;;;2.27;1.50;;;14.10;99.90;;;;;;4954337;28;20708;-76
2022/05/24 13:40:18;;;;;;;1.97;1.50;;;14.00;99.90;;;;;;4941498;29;20212;-77
2022/05/24 13:42:57;;;;;;;1.83;1.67;;;14.00;99.90;;;;;;4937062;29;20303;-76
2022/05/24 13:45:28;;;;;;;2.27;1.60;;;13.90;99.90;;;;;;4950131;29;20215;-75
2022/05/24 13:47:59;;;;;;;4.77;1.40;;;13.90;99.90;;;;;;4955866;29;20243;-76
2022/05/24 13:50:38;;;;;;;1.63;1.30;;;13.90;99.90;;;;;;4955578;29;20235;-74
2022/05/24 13:53:08;;;;;;;2.27;1.53;;;13.80;99.90;;;;;;4936982;29;20610;-74
2022/05/24 13:55:39;;;;;;;2.23;1.40;;;13.80;99.90;;;;;;4951378;29;20615;-76
2022/05/24 13:58:12;;;;;;;2.50;1.27;;;13.60;99.90;;;;;;4956194;29;20200;-75
2022/05/24 14:00:48;;;;;;;1.83;1.50;;;13.60;99.90;;;;;;4956156;29;20571;-73
2022/05/24 14:03:23;;;;;;;2.20;1.60;;;13.60;99.90;;;;;;4955532;29;20211;-78
2022/05/24 14:06:03;;;;;;;3.13;1.67;;;13.70;99.90;;;;;;4955245;29;20228;-76
2022/05/24 14:08:32;;;;;;;3.27;1.60;;;13.80;99.90;;;;;;4955407;29;20658;-75
2022/05/24 14:11:00;;;;;;;2.33;1.70;;;13.90;99.90;;;;;;4956177;29;20239;-76
2022/05/24 14:13:29;;;;;;;1.73;1.43;;;14.20;99.90;;;;;;4956385;29;20282;-76
2022/05/24 14:16:02;;;;;;;3.37;1.40;;;14.40;99.90;;;;;;4956004;29;20211;-76
2022/05/24 14:18:30;;;;;;;2.30;1.40;;;14.60;99.90;;;;;;4955516;29;20282;-77
2022/05/24 14:20:58;;;;;;;2.07;1.50;;;14.80;99.90;;;;;;4954982;29;20673;-74
2022/05/24 14:23:27;;;;;;;2.33;1.60;;;15.10;99.90;;;;;;4954246;29;20204;-75
2022/05/24 14:25:59;;;;;;;3.83;1.60;;;15.40;99.90;;;;;;4955193;29;20286;-76
2022/05/24 14:28:27;;;;;;;1.73;1.50;;;15.70;99.90;;;;;;4955637;29;20219;-75
2022/05/24 14:30:55;;;;;;;2.93;1.67;;;15.80;99.90;;;;;;4955783;29;20215;-74
2022/05/24 14:33:26;;;;;;;2.37;1.60;;;15.90;99.90;;;;;;4953708;29;20224;-76
2022/05/24 14:35:55;;;;;;;2.93;1.67;;;16.00;99.90;;;;;;4954724;29;20208;-77
2022/05/24 14:38:23;;;;;;;2.33;1.60;;;16.10;99.90;;;;;;4954568;29;20254;-76
2022/05/24 14:40:52;;;;;;;1.80;1.53;;;16.30;99.90;;;;;;4954310;29;20263;-76
2022/05/24 14:43:23;;;;;;;2.60;1.33;;;16.30;99.90;;;;;;4954508;29;20212;-75
2022/05/24 14:45:52;;;;;;;1.60;1.50;;;16.20;99.90;;;;;;4954501;29;20227;-75
2022/05/24 14:48:23;;;;;;;3.20;1.73;;;16.10;99.90;;;;;;4955165;29;20203;-76
2022/05/24 14:50:53;;;;;;;1.60;1.50;;;15.80;99.90;;;;;;4954563;29;20212;-77
2022/05/24 14:53:21;;;;;;;2.63;1.80;;;15.60;99.90;;;;;;4955126;29;20234;-76
2022/05/24 14:55:49;;;;;;;4.60;1.60;;;15.50;99.90;;;;;;4954959;29;20238;-76
2022/05/24 14:58:17;;;;;;;1.77;1.67;;;15.40;99.90;;;;;;4954690;29;20239;-74
2022/05/24 15:00:45;;;;;;;5.90;2.20;;;15.30;99.90;;;;;;4954522;29;20263;-75
2022/05/24 15:03:14;;;;;;;9.83;2.40;;;15.20;99.90;;;;;;4954132;29;20713;-75
2022/05/24 15:05:42;;;;;;;6.73;2.30;;;15.10;99.90;;;;;;4954506;29;20257;-75
2022/05/24 15:16:31;;;;;;;3.83;2.00;;;14.60;99.90;;;;;;4954657;29;20278;-75
2022/05/24 15:18:59;;;;;;;3.30;2.10;;;14.60;99.90;;;;;;4955209;29;20211;-75
2022/05/24 15:21:32;;;;;;;3.83;2.00;;;14.40;99.90;;;;;;4954804;29;20215;-76
2022/05/24 15:24:05;;;;;;;3.77;2.47;;;14.40;99.90;;;;;;4956066;29;20286;-76
2022/05/24 15:26:36;;;;;;;2.23;2.03;;;14.30;99.90;;;;;;4955735;29;20724;-76
2022/05/24 15:29:07;;;;;;;4.17;2.10;;;14.20;99.90;;;;;;4953853;29;20294;-77
2022/05/24 15:31:36;;;;;;;5.63;2.40;;;14.20;99.90;;;;;;4954021;29;20207;-76
2022/05/24 15:34:05;;;;;;;6.83;2.53;;;14.10;99.90;;;;;;4953681;29;20244;-77
2022/05/24 15:36:33;;;;;;;3.47;2.23;;;14.20;99.90;;;;;;4954447;29;20214;-77
2022/05/24 15:39:04;;;;;;;5.10;3.27;;;14.00;99.90;;;;;;4954393;29;20266;-77
2022/05/24 15:41:33;;;;;;;7.60;2.67;;;14.00;99.90;;;;;;4954292;29;20277;-76
2022/05/24 15:44:01;;;;;;;5.80;2.50;;;14.00;99.90;;;;;;4958219;29;20212;-75
2022/05/24 15:46:29;;;;;;;4.80;2.73;;;14.00;99.90;;;;;;4962121;29;20269;-76
2022/05/24 15:48:59;;;;;;;3.80;2.50;;;13.90;99.90;;;;;;4958135;29;20215;-74
2022/05/24 15:51:28;;;;;;;5.77;2.80;;;14.00;99.90;;;;;;4954180;29;20215;-74
2022/05/24 15:53:56;;;;;;;4.83;2.80;;;13.90;99.90;;;;;;4953932;29;20311;-75
2022/05/24 15:56:31;;;;;;;4.07;3.03;;;13.90;99.90;;;;;;4953834;29;20203;-76
2022/05/24 15:59:00;;;;;;;3.23;2.67;;;13.90;99.90;;;;;;4953643;29;20709;-77
2022/05/24 16:01:28;;;;;;;3.63;2.63;;;13.80;99.90;;;;;;4954743;28;20208;-76
2022/05/24 16:03:57;;;;;;;3.80;2.53;;;13.90;99.90;;;;;;4958163;29;20290;-75
2022/05/24 16:12:00;;;;;;;4.03;2.30;;;14.00;99.90;;;;;;4956299;29;20215;-77
2022/05/24 16:14:33;;;;;;;3.97;2.77;;;14.00;99.90;;;;;;4957368;29;20264;-74
2022/05/24 16:17:03;;;;;;;2.57;2.30;;;14.00;99.90;;;;;;4957381;29;20559;-74
2022/05/24 16:19:33;;;;;;;2.77;2.33;;;13.90;99.90;;;;;;4946163;29;20235;-76
2022/05/24 16:22:04;;;;;;;3.10;2.53;;;13.90;99.90;;;;;;4956416;29;20207;-76
2022/05/24 16:24:34;;;;;;;4.50;2.43;;;13.90;99.90;;;;;;4955994;29;20204;-74
2022/05/24 16:27:08;;;;;;;3.97;2.70;;;13.90;99.90;;;;;;4950811;28;20243;-73
2022/05/24 16:29:39;;;;;;;2.70;2.30;;;13.90;99.90;;;;;;4963725;28;20651;-76
2022/05/24 16:32:08;;;;;;;2.73;2.50;;;13.80;99.90;;;;;;4961927;28;20285;-78
2022/05/24 16:34:37;;;;;;;3.67;2.40;;;13.80;99.90;;;;;;4965251;28;20204;-77
2022/05/24 16:37:06;;;;;;;2.63;2.30;;;13.80;99.90;;;;;;4956790;29;20623;-76
2022/05/24 16:39:34;;;;;;;3.57;2.37;;;13.80;99.90;;;;;;4956245;29;20295;-77
2022/05/24 16:42:05;;;;;;;3.67;2.60;;;13.80;99.90;;;;;;4956806;29;20243;-79
2022/05/24 16:44:33;;;;;;;3.40;2.60;;;13.80;99.90;;;;;;4955624;29;20666;-78
2022/05/24 16:47:02;;;;;;;3.90;2.53;;;13.80;99.90;;;;;;4952117;29;20219;-74
2022/05/24 16:49:30;;;;;;;4.10;2.80;;;13.70;99.90;;;;;;4955879;29;20211;-76
2022/05/24 16:52:03;;;;;;;4.33;2.70;;;13.90;99.90;;;;;;4955570;29;20613;-79
2022/05/24 17:00:14;;;;;;;3.57;2.70;;;14.00;99.90;;;;;;4952653;28;20303;-77
2022/05/24 17:02:45;;;;;;;4.03;2.70;;;14.00;99.90;;;;;;4945195;29;20604;-80
2022/05/24 17:05:14;;;;;;;3.37;3.07;;;14.00;99.90;;;;;;4956252;29;20215;-79
2022/05/24 17:07:42;;;;;;;3.67;2.80;;;14.00;99.90;;;;;;4938582;29;20283;-75
2022/05/24 17:10:11;;;;;;;4.20;2.63;;;13.90;99.90;;;;;;4953264;29;20239;-79
2022/05/24 17:12:43;;;;;;;4.63;3.20;;;13.90;99.90;;;;;;4950748;28;20679;-77
2022/05/24 17:15:14;;;;;;;3.00;2.70;;;13.90;99.90;;;;;;4954826;28;20215;-74
2022/05/24 17:17:43;;;;;;;5.80;2.97;;;13.80;99.90;;;;;;4955371;29;20596;-80
2022/05/24 17:20:15;;;;;;;5.77;3.33;;;13.80;99.90;;;;;;4949709;28;20362;-79
2022/05/24 17:22:43;;;;;;;3.83;3.53;;;13.70;99.90;;;;;;4965304;28;20207;-74
2022/05/24 17:25:14;;;;;;;4.10;3.30;;;13.70;99.90;;;;;;4945408;28;20223;-80
2022/05/24 17:27:44;;;;;;;4.97;3.30;;;13.70;99.90;;;;;;4954709;28;20299;-76
2022/05/24 17:30:15;;;;;;;6.03;3.67;;;13.60;99.90;;;;;;4953849;29;20231;-75
2022/05/24 17:32:49;;;;;;;5.77;3.50;;;13.60;99.90;;;;;;4955147;29;20622;-77
2022/05/24 17:35:17;;;;;;;5.33;3.50;;;13.50;99.90;;;;;;4953409;28;20255;-77
2022/05/24 17:37:46;;;;;;;6.43;3.80;;;13.50;99.90;;;;;;4954750;28;20200;-76
2022/05/24 17:40:16;;;;;;;4.33;3.80;;;13.50;99.90;;;;;;4952796;28;20251;-75
2022/05/24 17:43:05;;;;;;;4.50;3.77;;;13.50;99.90;;;;;;4954275;29;20226;-76
2022/05/24 17:45:34;;;;;;;6.20;3.80;;;13.40;99.90;;;;;;4953697;28;20212;-76
2022/05/24 17:48:05;;;;;;;8.13;4.10;;;13.40;99.90;;;;;;4954348;29;20286;-77
2022/05/24 17:50:35;;;;;;;5.07;3.93;;;13.40;99.90;;;;;;4955822;28;20207;-76
2022/05/24 17:53:04;;;;;;;6.57;4.30;;;13.50;99.90;;;;;;4954077;28;20290;-74
2022/05/24 17:55:32;;;;;;;7.63;4.33;;;13.40;99.90;;;;;;4954179;29;20235;-79
2022/05/24 17:58:00;;;;;;;5.23;4.10;;;13.40;99.90;;;;;;4954923;29;20199;-77
2022/05/24 18:00:30;;;;;;;6.20;4.23;;;13.50;99.90;;;;;;4951972;29;20581;-81
2022/05/24 18:02:58;;;;;;;6.17;4.30;;;13.40;99.90;;;;;;4952359;29;20291;-78
2022/05/24 18:05:27;;;;;;;5.30;4.40;;;13.40;99.90;;;;;;4954067;29;20299;-76
2022/05/24 18:07:55;;;;;;;5.00;3.90;;;13.40;99.90;;;;;;4954464;29;20251;-79
2022/05/24 18:10:23;;;;;;;4.20;3.80;;;13.40;99.90;;;;;;4954042;29;20232;-78